map of CHS home
CHS - Airport
Location
City:  Charleston, South Carolina, United States
Name:Charleston AFB/International
ICAO:KCHS
IATA:CHS
FAA LID:CHS

Details
Type:Airport (Part 139 Class I)
Use:Public/Civil, Military, International (customs landing rights)
Latitude:3253'55"N (32.898639)
Longitude:8002'26"W (-80.040527)
Datum:WGS 1984
Elevation:46 ft (14 m)
Variation:7.89W (WMM2015 magnetic declination)
-0.06 annual change
Runways:2
Longest:9001 × 150 ft (2744 × 45.5 m), paved

Time
Time Zone:UTC-5 (DST-4)
Local Time:

Weather
METAR:KCHS 161956Z 16009KT 10SM SCT200 12/02 A3025 RMK AO2 SLP243 T01220017
TAF:KCHS 161720Z 1618/1718 VRB03KT P6SM SKC

Related Locations
Nearby:
Farthest:MQZ: 11567 mi / 18615 km
Margaret River [Margaret River Airport], WA, AU

Find:

   beyond  
but within

Other Information
Maps:
Delays:
NOTAMs:
Links:
Sources:

  
flag of United States
flag of South Carolina
flag of Charleston
  

Airport Diagram

Airport diagram for CHS

Airport diagram PDF

Sectional Chart

Flight Planning
at skyvector.com

Satellite Image

Google Maps Satellite view

 

Copyright © 2004-2017 Karl L. Swartz. All rights reserved.
The Great Circle Mapper name and logo are trademarks of the Great Circle Mapper.
All other trademarks mentioned herein belong to their respective owners.
Please see credits for attibutions and further copyright information.

  Follow gcmap on Facebook Follow gcmap on Twitter Follow gcmap on Google+ GCmap on LinkedIn

hCard Microformat

Geo Microformat